createdAt,value
2023-04-03T00:01:54.654Z,102112.91
2023-04-03T00:04:21.261Z,102117.56
2023-04-03T00:06:47.757Z,102113.03
2023-04-03T00:09:14.219Z,102115.44
2023-04-03T00:11:40.676Z,102109.50
2023-04-03T00:14:07.269Z,102110.59
2023-04-03T00:16:33.834Z,102111.66
2023-04-03T00:19:00.321Z,102112.66
2023-04-03T00:21:27.076Z,102119.44
2023-04-03T00:23:53.573Z,102112.59
2023-04-03T00:26:20.098Z,102115.06
2023-04-03T00:28:46.574Z,102115.66
2023-04-03T00:31:16.403Z,102112.47
2023-04-03T00:33:43.215Z,102108.47
2023-04-03T00:36:11.394Z,102102.59
2023-04-03T00:38:37.974Z,102104.25
2023-04-03T00:41:04.633Z,102109.72
2023-04-03T00:43:31.317Z,102100.28
2023-04-03T00:45:59.872Z,102104.72
2023-04-03T00:48:34.480Z,102101.28
2023-04-03T00:51:02.415Z,102101.31
2023-04-03T00:53:34.615Z,102104.72
2023-04-03T00:56:01.526Z,102111.41
2023-04-03T00:58:52.510Z,102101.09
2023-04-03T01:01:24.515Z,102098.56
2023-04-03T01:03:51.325Z,102105.59
2023-04-03T01:06:34.233Z,102103.84
2023-04-03T01:09:01.500Z,102105.88
2023-04-03T01:11:28.086Z,102105.88
2023-04-03T01:13:55.012Z,102105.75
2023-04-03T01:16:21.673Z,102108.06
2023-04-03T01:18:48.423Z,102112.97
2023-04-03T01:21:42.941Z,102109.56
2023-04-03T01:24:54.347Z,102112.03
2023-04-03T01:27:20.831Z,102114.25
2023-04-03T01:29:47.372Z,102115.38
2023-04-03T01:32:13.830Z,102112.03
2023-04-03T01:34:40.708Z,102114.34
2023-04-03T01:37:07.162Z,102120.34
2023-04-03T01:39:33.628Z,102117.00
2023-04-03T01:42:00.375Z,102123.84
2023-04-03T01:44:26.903Z,102123.72
2023-04-03T01:46:53.320Z,102117.75
2023-04-03T01:49:19.733Z,102123.06
2023-04-03T01:51:46.155Z,102123.19
2023-04-03T01:54:12.789Z,102118.13
2023-04-03T01:56:40.057Z,102111.09
2023-04-03T01:59:06.534Z,102124.00
2023-04-03T02:01:33.435Z,102115.50
2023-04-03T02:03:59.950Z,102117.91
2023-04-03T02:06:26.992Z,102112.75
2023-04-03T02:08:53.431Z,102125.56
2023-04-03T02:11:19.857Z,102116.13
2023-04-03T02:13:46.272Z,102117.91
2023-04-03T02:16:14.110Z,102121.28
2023-04-03T02:18:40.726Z,102123.63
2023-04-03T02:21:07.460Z,102122.59
2023-04-03T02:23:36.982Z,102122.53
2023-04-03T02:26:12.272Z,102126.13
2023-04-03T02:28:38.858Z,102122.59
2023-04-03T02:31:07.465Z,102123.91
2023-04-03T02:33:34.767Z,102128.25
2023-04-03T02:36:01.473Z,102130.81
2023-04-03T02:38:28.022Z,102129.13
2023-04-03T02:40:54.539Z,102130.16
2023-04-03T02:43:20.943Z,102129.38
2023-04-03T02:45:47.470Z,102134.53
2023-04-03T02:48:15.726Z,102127.84
2023-04-03T02:50:42.502Z,102125.16
2023-04-03T02:53:09.027Z,102127.13
2023-04-03T02:55:35.719Z,102126.13
2023-04-03T02:58:02.257Z,102124.50
2023-04-03T03:00:28.756Z,102127.25
2023-04-03T03:02:55.251Z,102125.63
2023-04-03T03:05:22.437Z,102125.75
2023-04-03T03:07:49.018Z,102137.22
2023-04-03T03:10:15.796Z,102128.72
2023-04-03T03:12:42.225Z,102143.44
2023-04-03T03:15:09.194Z,102133.31
2023-04-03T03:17:37.139Z,102134.19
2023-04-03T03:20:05.077Z,102136.88
2023-04-03T03:22:32.820Z,102138.66
2023-04-03T03:24:59.321Z,102141.28
2023-04-03T03:27:25.979Z,102141.28
2023-04-03T03:29:52.413Z,102133.53
2023-04-03T03:32:19.112Z,102134.38
2023-04-03T03:34:45.768Z,102131.72
2023-04-03T03:37:12.229Z,102136.94
2023-04-03T03:39:38.814Z,102140.22
2023-04-03T03:42:05.382Z,102133.44
2023-04-03T03:44:31.799Z,102132.59
2023-04-03T03:46:58.253Z,102127.34
2023-04-03T03:49:24.822Z,102122.84
2023-04-03T03:51:51.796Z,102124.50
2023-04-03T03:54:18.537Z,102127.88
2023-04-03T03:56:44.951Z,102126.25
2023-04-03T03:59:13.516Z,102129.59
2023-04-03T04:01:40.723Z,102129.53
2023-04-03T04:04:07.266Z,102126.13
2023-04-03T04:06:33.758Z,102126.06
2023-04-03T04:09:01.394Z,102133.66
2023-04-03T04:11:28.690Z,102134.50
2023-04-03T04:13:55.342Z,102143.88
2023-04-03T04:16:21.887Z,102143.00
2023-04-03T04:18:48.375Z,102143.00
2023-04-03T04:21:14.831Z,102143.00
2023-04-03T04:23:41.338Z,102147.22
2023-04-03T04:26:07.807Z,102149.78
2023-04-03T04:28:34.304Z,102157.47
2023-04-03T04:31:00.841Z,102152.31
2023-04-03T04:33:27.296Z,102161.66
2023-04-03T04:35:54.007Z,102152.09
2023-04-03T04:38:20.545Z,102149.41
2023-04-03T04:40:48.811Z,102161.44
2023-04-03T04:43:15.494Z,102163.13
2023-04-03T04:45:43.018Z,102159.56
2023-04-03T04:48:09.798Z,102166.38
2023-04-03T04:50:36.386Z,102170.53
2023-04-03T04:53:02.940Z,102172.25
2023-04-03T04:55:29.402Z,102175.63
2023-04-03T04:57:55.972Z,102179.97
2023-04-03T05:00:22.720Z,102170.38
2023-04-03T05:02:49.217Z,102184.09
2023-04-03T05:05:15.872Z,102183.03
2023-04-03T05:07:42.443Z,102185.63
2023-04-03T05:10:09.914Z,102187.38
2023-04-03T05:12:36.322Z,102188.25
2023-04-03T05:15:02.799Z,102192.47
2023-04-03T05:17:29.264Z,102188.19
2023-04-03T05:19:55.781Z,102198.56
2023-04-03T05:22:22.327Z,102194.22
2023-04-03T05:24:48.762Z,102200.13
2023-04-03T05:27:15.329Z,102194.91
2023-04-03T05:29:45.217Z,102200.94
2023-04-03T05:32:12.737Z,102200.94
2023-04-03T05:34:39.187Z,102212.06
2023-04-03T05:37:06.057Z,102204.41
2023-04-03T05:39:33.061Z,102202.63
2023-04-03T05:41:59.555Z,102210.44
2023-04-03T05:44:26.161Z,102212.13
2023-04-03T05:46:52.632Z,102215.75
2023-04-03T05:49:19.065Z,102219.31
2023-04-03T05:51:46.160Z,102227.13
2023-04-03T05:54:15.534Z,102227.13
2023-04-03T05:56:42.221Z,102226.41
2023-04-03T05:59:08.728Z,102228.97
2023-04-03T06:01:35.473Z,102231.75
2023-04-03T06:04:02.279Z,102234.38
2023-04-03T06:06:45.317Z,102234.47
2023-04-03T06:09:12.012Z,102238.88
2023-04-03T06:11:38.557Z,102238.19
2023-04-03T06:14:05.033Z,102247.84
2023-04-03T06:16:31.575Z,102242.78
2023-04-03T06:18:58.108Z,102238.47
2023-04-03T06:21:24.578Z,102243.69
2023-04-03T06:23:52.556Z,102247.19
2023-04-03T06:26:18.999Z,102247.41
2023-04-03T06:28:45.481Z,102247.47
2023-04-03T06:31:11.968Z,102238.03
2023-04-03T06:33:38.478Z,102246.09
2023-04-03T06:36:06.662Z,102245.50
2023-04-03T06:38:35.010Z,102253.28
2023-04-03T06:41:01.632Z,102251.59
2023-04-03T06:43:28.189Z,102245.00
2023-04-03T06:45:54.641Z,102240.78
2023-04-03T06:48:21.920Z,102246.00
2023-04-03T06:50:48.340Z,102244.34
2023-04-03T06:53:14.882Z,102244.44
2023-04-03T06:55:42.239Z,102242.81
2023-04-03T06:58:08.751Z,102250.66
2023-04-03T07:00:35.399Z,102246.53
2023-04-03T07:03:01.972Z,102253.50
2023-04-03T07:05:28.464Z,102258.72
2023-04-03T07:07:55.040Z,102251.91
2023-04-03T07:10:21.570Z,102262.41
2023-04-03T07:12:48.131Z,102271.19
2023-04-03T07:15:15.534Z,102261.81
2023-04-03T07:17:42.476Z,102267.22
2023-04-03T07:20:09.819Z,102270.75
2023-04-03T07:22:36.285Z,102269.13
2023-04-03T07:25:03.680Z,102271.22
2023-04-03T07:27:30.255Z,102276.53
2023-04-03T07:29:57.152Z,102258.66
2023-04-03T07:32:23.638Z,102271.75
2023-04-03T07:34:50.329Z,102265.69
2023-04-03T07:37:17.258Z,102274.59
2023-04-03T07:39:45.955Z,102279.91
2023-04-03T07:42:13.302Z,102281.88
2023-04-03T07:44:39.787Z,102280.22
2023-04-03T07:47:06.332Z,102276.19
2023-04-03T07:49:33.900Z,102272.97
2023-04-03T07:52:00.335Z,102272.13
2023-04-03T07:54:26.916Z,102282.59
2023-04-03T07:56:53.859Z,102288.13
2023-04-03T07:59:20.457Z,102284.06
2023-04-03T08:01:47.046Z,102280.66
2023-04-03T08:04:13.648Z,102286.91
2023-04-03T08:06:46.291Z,102282.69
2023-04-03T08:09:13.513Z,102292.50
2023-04-03T08:11:40.707Z,102288.94
2023-04-03T08:14:07.400Z,102290.81
2023-04-03T08:16:34.040Z,102296.75
2023-04-03T08:19:00.602Z,102293.59
2023-04-03T08:21:27.133Z,102299.03
2023-04-03T08:23:53.596Z,102292.38
2023-04-03T08:26:22.312Z,102291.47
2023-04-03T08:28:49.460Z,102302.22
2023-04-03T08:31:19.499Z,102292.88
2023-04-03T08:33:46.479Z,102294.03
2023-04-03T08:36:22.523Z,102301.94
2023-04-03T08:38:50.817Z,102295.16
2023-04-03T08:41:31.809Z,102302.03
2023-04-03T08:44:19.470Z,102302.03
2023-04-03T08:47:07.827Z,102303.88
2023-04-03T08:50:01.150Z,102296.97
2023-04-03T08:52:46.345Z,102297.94
2023-04-03T08:55:21.914Z,102298.88
2023-04-03T08:57:50.270Z,102302.41
2023-04-03T09:00:23.482Z,102300.09
2023-04-03T09:02:53.004Z,102292.94
2023-04-03T09:05:27.359Z,102295.22
2023-04-03T09:08:05.308Z,102308.28
2023-04-03T09:10:38.437Z,102306.66
2023-04-03T09:13:22.200Z,102315.44
2023-04-03T09:15:48.935Z,102313.56
2023-04-03T09:18:27.581Z,102312.28
2023-04-03T09:21:14.033Z,102304.25
2023-04-03T09:23:51.081Z,102296.88
2023-04-03T09:26:29.561Z,102291.91
2023-04-03T09:29:01.457Z,102299.88
2023-04-03T09:31:32.134Z,102299.19
2023-04-03T09:34:04.411Z,102302.53
2023-04-03T09:36:52.550Z,102300.81
2023-04-03T09:39:28.243Z,102297.38
2023-04-03T09:42:03.504Z,102295.88
2023-04-03T09:44:36.347Z,102292.72
2023-04-03T09:47:31.020Z,102291.38
2023-04-03T09:50:15.946Z,102295.06
2023-04-03T09:52:45.265Z,102292.47
2023-04-03T09:55:30.594Z,102287.56
2023-04-03T09:57:59.675Z,102293.59
2023-04-03T10:00:30.935Z,102281.69
2023-04-03T10:02:58.983Z,102280.53
2023-04-03T10:05:40.669Z,102284.84
2023-04-03T10:08:12.441Z,102278.28
2023-04-03T10:10:39.454Z,102273.91
2023-04-03T10:13:20.546Z,102274.97
2023-04-03T10:16:09.885Z,102272.56
2023-04-03T10:19:03.031Z,102275.66
2023-04-03T10:22:03.478Z,102281.97
2023-04-03T10:24:52.749Z,102280.06
2023-04-03T10:27:42.650Z,102282.31
2023-04-03T10:30:30.506Z,102275.22
2023-04-03T10:33:31.382Z,102268.34
2023-04-03T10:36:44.830Z,102257.91
2023-04-03T10:39:29.527Z,102254.97
2023-04-03T10:42:16.548Z,102262.97
2023-04-03T10:44:43.851Z,102255.13
2023-04-03T10:47:22.719Z,102248.59
2023-04-03T10:50:02.620Z,102253.97
2023-04-03T10:52:41.377Z,102246.34
2023-04-03T10:55:13.994Z,102253.53
2023-04-03T10:57:41.985Z,102244.44
2023-04-03T11:00:19.471Z,102235.63
2023-04-03T11:02:56.375Z,102233.38
2023-04-03T11:05:30.886Z,102243.81
2023-04-03T11:08:01.029Z,102239.72
2023-04-03T11:10:41.758Z,102232.63
2023-04-03T11:13:08.159Z,102236.00
2023-04-03T11:15:34.682Z,102221.16
2023-04-03T11:18:22.441Z,102220.28
2023-04-03T11:21:05.023Z,102217.94
2023-04-03T11:23:49.548Z,102212.84
2023-04-03T11:26:23.718Z,102220.19
2023-04-03T11:28:57.368Z,102213.41
2023-04-03T11:31:51.728Z,102208.09
2023-04-03T11:34:24.414Z,102211.75
2023-04-03T11:36:56.108Z,102211.06
2023-04-03T11:39:36.884Z,102200.66
2023-04-03T11:42:16.689Z,102196.56
2023-04-03T11:44:43.665Z,102194.06
2023-04-03T11:47:13.278Z,102203.59
2023-04-03T11:50:02.465Z,102196.88
2023-04-03T11:52:44.157Z,102202.41
2023-04-03T11:55:20.284Z,102197.69
2023-04-03T11:57:48.302Z,102191.94
2023-04-03T12:00:47.294Z,102186.44
2023-04-03T12:03:29.851Z,102193.78
2023-04-03T12:06:06.589Z,102185.97
2023-04-03T12:08:51.412Z,102178.03
2023-04-03T12:11:31.460Z,102176.66
2023-04-03T12:13:57.937Z,102176.25
2023-04-03T12:16:48.206Z,102181.53
2023-04-03T12:19:41.082Z,102169.97
2023-04-03T12:22:13.152Z,102175.50
2023-04-03T12:24:45.563Z,102156.72
2023-04-03T12:27:18.840Z,102153.00
2023-04-03T12:29:55.173Z,102164.81
2023-04-03T12:32:40.548Z,102146.09
2023-04-03T12:35:09.989Z,102157.06
2023-04-03T12:37:55.068Z,102154.16
2023-04-03T12:40:43.411Z,102148.38
2023-04-03T12:43:31.833Z,102146.75
2023-04-03T12:46:07.869Z,102145.00
2023-04-03T12:48:48.450Z,102147.53
2023-04-03T12:51:19.175Z,102140.75
2023-04-03T12:53:46.636Z,102140.06
2023-04-03T12:56:28.523Z,102137.41
2023-04-03T12:58:58.745Z,102130.59
2023-04-03T13:01:26.784Z,102135.00
2023-04-03T13:03:56.724Z,102137.63
2023-04-03T13:06:33.192Z,102114.09
2023-04-03T13:09:01.701Z,102119.34
2023-04-03T13:11:33.413Z,102111.44
2023-04-03T13:14:06.065Z,102115.84
2023-04-03T13:16:34.713Z,102110.56
2023-04-03T13:19:01.477Z,102113.19
2023-04-03T13:21:34.680Z,102107.09
2023-04-03T13:24:14.646Z,102107.97
2023-04-03T13:26:43.082Z,102111.47
2023-04-03T13:29:28.157Z,102105.38
2023-04-03T13:31:59.031Z,102103.63
2023-04-03T13:34:29.333Z,102108.88
2023-04-03T13:37:02.242Z,102107.13
2023-04-03T13:39:31.744Z,102109.72
2023-04-03T13:42:15.447Z,102114.94
2023-04-03T13:44:42.283Z,102110.47
2023-04-03T13:47:11.920Z,102105.19
2023-04-03T13:49:41.748Z,102104.06
2023-04-03T13:52:26.654Z,102103.22
2023-04-03T13:54:59.277Z,102096.19
2023-04-03T13:57:26.108Z,102093.72
2023-04-03T13:59:53.455Z,102092.78
2023-04-03T14:02:32.306Z,102087.47
2023-04-03T14:05:02.489Z,102081.41
2023-04-03T14:07:31.964Z,102088.50
2023-04-03T14:09:58.657Z,102081.34
2023-04-03T14:12:38.245Z,102081.19
2023-04-03T14:15:12.218Z,102074.16
2023-04-03T14:17:38.741Z,102071.53
2023-04-03T14:20:06.275Z,102070.72
2023-04-03T14:22:35.810Z,102075.06
2023-04-03T14:25:03.050Z,102071.59
2023-04-03T14:27:35.285Z,102071.59
2023-04-03T14:30:04.041Z,102068.22
2023-04-03T14:32:30.909Z,102062.06
2023-04-03T14:34:59.139Z,102057.59
2023-04-03T14:37:29.955Z,102052.19
2023-04-03T14:39:58.573Z,102059.25
2023-04-03T14:42:31.988Z,102053.13
2023-04-03T14:45:00.476Z,102052.22
2023-04-03T14:47:32.252Z,102054.84
2023-04-03T14:50:05.037Z,102048.63
2023-04-03T14:52:35.632Z,102048.56
2023-04-03T14:55:03.575Z,102046.78
2023-04-03T14:57:31.506Z,102055.38
2023-04-03T14:59:58.262Z,102039.66
2023-04-03T15:02:34.610Z,102039.59
2023-04-03T15:05:04.997Z,102045.75
2023-04-03T15:07:35.543Z,102041.31
2023-04-03T15:10:14.610Z,102042.19
2023-04-03T15:12:41.236Z,102035.25
2023-04-03T15:15:08.469Z,102030.97
2023-04-03T15:17:35.562Z,102034.31
2023-04-03T15:20:02.832Z,102036.88
2023-04-03T15:22:29.318Z,102043.06
2023-04-03T15:24:55.936Z,102044.88
2023-04-03T15:27:22.372Z,102048.28
2023-04-03T15:29:48.809Z,102055.25
2023-04-03T15:32:15.601Z,102049.16
2023-04-03T15:34:42.103Z,102048.28
2023-04-03T15:37:08.606Z,102040.31
2023-04-03T15:39:35.329Z,102037.72
2023-04-03T15:42:06.911Z,102036.03
2023-04-03T15:44:35.405Z,102051.78
2023-04-03T15:47:02.686Z,102043.06
2023-04-03T15:49:29.653Z,102037.84
2023-04-03T15:51:56.408Z,102049.16
2023-04-03T15:54:24.888Z,102037.88
2023-04-03T15:56:51.401Z,102042.19
2023-04-03T15:59:18.541Z,102038.63
2023-04-03T16:01:45.236Z,102048.28
2023-04-03T16:04:12.793Z,102050.03
2023-04-03T16:06:39.882Z,102042.25
2023-04-03T16:09:07.512Z,102047.56
2023-04-03T16:11:36.857Z,102051.06
2023-04-03T16:14:03.366Z,102050.19
2023-04-03T16:16:31.042Z,102050.13
2023-04-03T16:18:57.705Z,102055.44
2023-04-03T16:21:24.820Z,102057.97
2023-04-03T16:23:51.685Z,102052.59
2023-04-03T16:26:21.146Z,102059.59
2023-04-03T16:28:47.602Z,102047.25
2023-04-03T16:31:14.314Z,102050.75
2023-04-03T16:33:41.046Z,102055.09
2023-04-03T16:36:07.839Z,102054.22
2023-04-03T16:38:34.426Z,102054.19
2023-04-03T16:41:05.294Z,102055.91
2023-04-03T16:43:33.015Z,102053.34
2023-04-03T16:46:00.053Z,102063.03
2023-04-03T16:48:26.529Z,102058.59
2023-04-03T16:50:54.386Z,102069.81
2023-04-03T16:53:25.297Z,102072.44
2023-04-03T16:55:52.448Z,102073.19
2023-04-03T16:58:19.570Z,102079.28
2023-04-03T17:00:48.184Z,102085.28
2023-04-03T17:03:14.780Z,102076.53
2023-04-03T17:05:41.461Z,102082.59
2023-04-03T17:08:08.241Z,102080.91
2023-04-03T17:10:36.334Z,102080.84
2023-04-03T17:13:02.904Z,102077.25
2023-04-03T17:15:29.344Z,102083.31
2023-04-03T17:17:55.969Z,102075.31
2023-04-03T17:20:22.845Z,102083.81
2023-04-03T17:22:49.360Z,102079.41
2023-04-03T17:25:16.014Z,102078.38
2023-04-03T17:27:42.447Z,102081.69
2023-04-03T17:30:09.392Z,102082.56
2023-04-03T17:32:35.909Z,102086.94
2023-04-03T17:35:02.441Z,102097.31
2023-04-03T17:37:28.852Z,102085.00
2023-04-03T17:39:55.311Z,102084.75
2023-04-03T17:42:21.972Z,102085.53
2023-04-03T17:44:48.467Z,102081.03
2023-04-03T17:47:15.069Z,102089.56
2023-04-03T17:49:41.659Z,102080.78
2023-04-03T17:52:08.084Z,102085.03
2023-04-03T17:54:34.600Z,102095.19
2023-04-03T17:57:03.435Z,102087.31
2023-04-03T17:59:30.378Z,102091.50
2023-04-03T18:01:56.939Z,102092.25
2023-04-03T18:04:23.538Z,102085.22
2023-04-03T18:06:51.917Z,102092.91
2023-04-03T18:09:20.826Z,102095.63
2023-04-03T18:11:48.551Z,102103.34
2023-04-03T18:14:17.906Z,102096.25
2023-04-03T18:16:44.343Z,102105.69
2023-04-03T18:22:03.087Z,102109.78
2023-04-03T18:24:35.587Z,102114.06
2023-04-03T18:27:22.457Z,102105.28
2023-04-03T18:29:52.700Z,102109.38
2023-04-03T18:32:21.010Z,102116.19
2023-04-03T18:34:47.584Z,102111.81
2023-04-03T18:37:15.294Z,102109.97
2023-04-03T18:39:42.072Z,102111.72
2023-04-03T18:42:12.651Z,102109.78
2023-04-03T18:44:41.769Z,102110.59
2023-04-03T18:47:08.437Z,102107.94
2023-04-03T18:49:37.721Z,102108.69
2023-04-03T18:52:04.630Z,102104.31
2023-04-03T18:54:31.767Z,102111.09
2023-04-03T18:56:59.017Z,102116.19
2023-04-03T18:59:25.555Z,102110.88
2023-04-03T19:01:52.159Z,102118.69
2023-04-03T19:04:18.817Z,102117.72
2023-04-03T19:06:45.619Z,102115.84
2023-04-03T19:09:12.170Z,102123.47
2023-04-03T19:11:38.911Z,102122.59
2023-04-03T19:14:15.940Z,102123.41
2023-04-03T19:16:44.599Z,102124.19
2023-04-03T19:19:11.178Z,102122.31
2023-04-03T19:21:41.152Z,102127.38
2023-04-03T19:24:12.064Z,102130.75
2023-04-03T19:26:39.500Z,102135.03
2023-04-03T19:29:05.973Z,102129.91
2023-04-03T19:31:33.910Z,102128.00
2023-04-03T19:34:02.459Z,102139.19
2023-04-03T19:36:28.930Z,102138.28
2023-04-03T19:38:55.431Z,102135.59
2023-04-03T19:41:25.475Z,102130.19
2023-04-03T19:43:53.470Z,102140.66
2023-04-03T19:46:23.396Z,102134.47
2023-04-03T19:48:49.922Z,102138.72
2023-04-03T19:51:16.656Z,102127.44
2023-04-03T19:53:43.132Z,102133.38
2023-04-03T19:56:10.025Z,102132.53
2023-04-03T19:58:37.346Z,102130.59
2023-04-03T20:01:03.784Z,102136.59
2023-04-03T20:03:30.416Z,102137.47
2023-04-03T20:05:57.854Z,102136.50
2023-04-03T20:08:28.245Z,102142.56
2023-04-03T20:10:55.930Z,102136.34
2023-04-03T20:13:22.444Z,102139.75
2023-04-03T20:15:48.979Z,102133.72
2023-04-03T20:18:19.365Z,102136.25
2023-04-03T20:20:56.288Z,102136.13
2023-04-03T20:23:23.562Z,102139.50
2023-04-03T20:26:05.795Z,102135.88
2023-04-03T20:28:36.473Z,102141.06
2023-04-03T20:31:03.050Z,102136.78
2023-04-03T20:33:30.008Z,102141.88
2023-04-03T20:35:58.064Z,102139.13
2023-04-03T20:38:25.336Z,102138.22
2023-04-03T20:40:52.316Z,102142.69
2023-04-03T20:43:19.395Z,102136.66
2023-04-03T20:45:46.132Z,102144.47
2023-04-03T20:48:13.157Z,102141.78
2023-04-03T20:50:41.167Z,102140.13
2023-04-03T20:53:08.889Z,102136.50
2023-04-03T20:55:35.367Z,102136.38
2023-04-03T20:58:02.058Z,102131.13
2023-04-03T21:00:32.134Z,102133.69
2023-04-03T21:03:01.478Z,102127.41
2023-04-03T21:05:30.108Z,102131.66
2023-04-03T21:08:35.816Z,102133.31
2023-04-03T21:11:40.161Z,102132.31
2023-04-03T21:14:45.872Z,102126.13
2023-04-03T21:17:12.246Z,102130.34
2023-04-03T21:19:45.727Z,102129.00
2023-04-03T21:22:13.764Z,102135.84
2023-04-03T21:24:40.577Z,102131.38
2023-04-03T21:27:07.240Z,102139.28
2023-04-03T21:29:33.710Z,102134.81
2023-04-03T21:32:01.608Z,102138.28
2023-04-03T21:34:29.757Z,102141.56
2023-04-03T21:37:04.904Z,102142.28
2023-04-03T21:39:32.195Z,102141.44
2023-04-03T21:41:59.030Z,102148.78
2023-04-03T21:44:28.652Z,102148.13
2023-04-03T21:46:55.438Z,102151.69
2023-04-03T21:49:23.201Z,102160.81
2023-04-03T21:51:51.402Z,102149.59
2023-04-03T21:54:18.442Z,102153.75
2023-04-03T21:56:45.017Z,102148.31
2023-04-03T21:59:11.812Z,102150.00
2023-04-03T22:01:38.613Z,102149.63
2023-04-03T22:04:05.041Z,102153.88
2023-04-03T22:06:31.637Z,102159.00
2023-04-03T22:08:58.220Z,102161.47
2023-04-03T22:11:27.181Z,102157.78
2023-04-03T22:13:55.030Z,102150.88
2023-04-03T22:16:23.418Z,102151.75
2023-04-03T22:18:55.003Z,102151.78
2023-04-03T22:21:22.040Z,102149.75
2023-04-03T22:23:48.823Z,102136.41
2023-04-03T22:26:15.616Z,102140.38
2023-04-03T22:28:47.045Z,102134.09
2023-04-03T22:31:14.938Z,102136.41
2023-04-03T22:33:43.386Z,102133.28
2023-04-03T22:36:11.921Z,102127.22
2023-04-03T22:38:39.223Z,102127.03
2023-04-03T22:41:07.609Z,102130.69
2023-04-03T22:43:36.298Z,102126.34
2023-04-03T22:46:05.157Z,102126.44
2023-04-03T22:48:31.794Z,102121.31
2023-04-03T22:51:00.005Z,102121.19
2023-04-03T22:53:26.899Z,102119.41
2023-04-03T22:55:58.013Z,102113.34
2023-04-03T22:58:27.892Z,102120.94
2023-04-03T23:01:09.306Z,102112.34
2023-04-03T23:03:37.147Z,102119.53
2023-04-03T23:06:04.718Z,102117.72
2023-04-03T23:08:32.672Z,102116.06
2023-04-03T23:10:59.478Z,102114.25
2023-04-03T23:13:26.384Z,102114.84
2023-04-03T23:15:57.649Z,102122.81
2023-04-03T23:18:25.300Z,102124.91
2023-04-03T23:20:51.998Z,102129.56
2023-04-03T23:23:22.435Z,102123.47
2023-04-03T23:25:56.877Z,102124.56
2023-04-03T23:28:23.654Z,102125.88
2023-04-03T23:30:51.733Z,102122.78
2023-04-03T23:33:18.230Z,102117.25
2023-04-03T23:35:46.684Z,102117.44
2023-04-03T23:38:13.588Z,102109.13
2023-04-03T23:40:41.911Z,102116.47
2023-04-03T23:43:08.801Z,102114.84
2023-04-03T23:45:35.338Z,102122.41
2023-04-03T23:48:02.059Z,102127.25
2023-04-03T23:50:28.689Z,102118.94
2023-04-03T23:52:55.174Z,102117.03
2023-04-03T23:55:21.642Z,102116.75
2023-04-03T23:57:48.081Z,102123.72
